createdAt,value
2023-02-12T00:00:04.591Z,1035.57
2023-02-12T00:05:02.657Z,1035.72
2023-02-12T00:10:03.459Z,1035.66
2023-02-12T00:15:03.279Z,1035.73
2023-02-12T00:20:03.267Z,1035.8
2023-02-12T00:25:02.971Z,1035.77
2023-02-12T00:30:02.976Z,1035.85
2023-02-12T00:35:03.634Z,1035.86
2023-02-12T00:40:03.452Z,1036.01
2023-02-12T00:45:03.122Z,1035.96
2023-02-12T00:50:02.766Z,1035.93
2023-02-12T00:55:03.982Z,1035.97
2023-02-12T01:00:03.194Z,1036.06
2023-02-12T01:05:03.473Z,1036.1
2023-02-12T01:10:02.775Z,1036.13
2023-02-12T01:15:03.657Z,1036.29
2023-02-12T01:20:03.677Z,1036.28
2023-02-12T01:25:03.316Z,1036.28
2023-02-12T01:30:03.178Z,1036.25
2023-02-12T01:35:03.034Z,1036.32
2023-02-12T01:40:02.976Z,1036.3
2023-02-12T01:45:03.362Z,1036.26
2023-02-12T01:50:03.205Z,1036.31
2023-02-12T01:55:03.413Z,1036.25
2023-02-12T02:00:02.754Z,1036.18
2023-02-12T02:05:03.586Z,1036.15
2023-02-12T02:10:03.055Z,1036.19
2023-02-12T02:15:03.204Z,1036.11
2023-02-12T02:20:03.302Z,1036.13
2023-02-12T02:25:03.334Z,1036.11
2023-02-12T02:30:02.860Z,1036.09
2023-02-12T02:35:02.483Z,1036.15
2023-02-12T02:40:03.373Z,1036.16
2023-02-12T02:45:03.159Z,1036.14
2023-02-12T02:50:02.852Z,1036.22
2023-02-12T02:55:02.751Z,1036.26
2023-02-12T03:00:03.582Z,1036.28
2023-02-12T03:05:03.199Z,1036.27
2023-02-12T03:10:02.966Z,1036.3
2023-02-12T03:15:02.655Z,1036.38
2023-02-12T03:20:03.428Z,1036.53
2023-02-12T03:25:03.328Z,1036.53
2023-02-12T03:30:02.938Z,1036.63
2023-02-12T03:35:03.614Z,1036.73
2023-02-12T03:40:03.535Z,1036.75
2023-02-12T03:45:03.293Z,1036.76
2023-02-12T03:50:02.983Z,1036.81
2023-02-12T04:00:03.425Z,1036.73
2023-02-12T04:05:03.219Z,1036.78
2023-02-12T04:15:02.909Z,1036.85
2023-02-12T04:20:03.769Z,1036.96
2023-02-12T04:25:03.272Z,1037.02
2023-02-12T04:30:03.005Z,1037.12
2023-02-12T04:35:02.938Z,1037.07
2023-02-12T04:40:03.600Z,1037.13
2023-02-12T04:50:03.090Z,1037.19
2023-02-12T04:55:03.488Z,1037.17
2023-02-12T05:00:02.743Z,1037.15
2023-02-12T05:05:03.772Z,1037.16
2023-02-12T05:10:03.478Z,1037.26
2023-02-12T05:15:03.327Z,1037.22
2023-02-12T05:20:03.252Z,1037.26
2023-02-12T05:25:03.102Z,1037.27
2023-02-12T05:30:02.810Z,1037.27
2023-02-12T05:40:02.807Z,1037.26
2023-02-12T05:45:03.526Z,1037.31
2023-02-12T05:50:03.269Z,1037.28
2023-02-12T05:55:03.214Z,1037.29
2023-02-12T06:00:02.967Z,1037.34
2023-02-12T06:05:02.874Z,1037.37
2023-02-12T06:10:02.813Z,1037.53
2023-02-12T06:15:03.550Z,1037.59
2023-02-12T06:25:03.276Z,1037.72
2023-02-12T06:30:03.024Z,1037.74
2023-02-12T06:40:03.637Z,1037.78
2023-02-12T06:45:03.620Z,1037.88
2023-02-12T06:50:03.615Z,1037.9
2023-02-12T07:00:03.207Z,1038.07
2023-02-12T07:05:03.265Z,1038.02
2023-02-12T07:10:02.677Z,1038.03
2023-02-12T07:15:02.834Z,1038.07
2023-02-12T07:20:02.719Z,1038.15
2023-02-12T07:25:03.442Z,1038.19
2023-02-12T07:35:02.884Z,1038.22
2023-02-12T07:40:03.625Z,1038.31
2023-02-12T07:45:03.422Z,1038.34
2023-02-12T07:50:03.158Z,1038.42
2023-02-12T07:55:03.243Z,1038.55
2023-02-12T08:00:03.289Z,1038.57
2023-02-12T08:05:03.136Z,1038.57
2023-02-12T08:10:03.218Z,1038.67
2023-02-12T08:15:02.954Z,1038.72
2023-02-12T08:20:03.597Z,1038.76
2023-02-12T08:25:02.910Z,1038.78
2023-02-12T08:30:02.693Z,1038.75
2023-02-12T08:35:03.524Z,1038.83
2023-02-12T08:40:03.280Z,1038.92
2023-02-12T08:45:03.121Z,1038.97
2023-02-12T08:50:02.938Z,1038.92
2023-02-12T08:55:02.753Z,1038.97
2023-02-12T09:00:03.431Z,1038.99
2023-02-12T09:05:03.196Z,1039.02
2023-02-12T09:10:02.966Z,1039.04
2023-02-12T09:15:02.725Z,1039.1
2023-02-12T09:20:03.571Z,1039.17
2023-02-12T09:25:03.266Z,1039.16
2023-02-12T09:30:03.337Z,1039.19
2023-02-12T09:35:02.949Z,1039.29
2023-02-12T09:40:03.415Z,1039.32
2023-02-12T09:45:03.083Z,1039.37
2023-02-12T09:50:02.812Z,1039.45
2023-02-12T09:55:03.066Z,1039.49
2023-02-12T10:00:03.753Z,1039.5
2023-02-12T10:05:03.850Z,1039.55
2023-02-12T10:10:02.968Z,1039.55
2023-02-12T10:15:02.737Z,1039.53
2023-02-12T10:20:03.479Z,1039.48
2023-02-12T10:25:03.471Z,1039.54
2023-02-12T10:30:03.151Z,1039.55
2023-02-12T10:35:03.109Z,1039.49
2023-02-12T10:40:02.935Z,1039.53
2023-02-12T10:45:02.858Z,1039.46
2023-02-12T10:55:03.703Z,1039.54
2023-02-12T11:00:03.145Z,1039.36
2023-02-12T11:05:03.064Z,1039.3
2023-02-12T11:10:03.609Z,1039.3
2023-02-12T11:25:02.868Z,1039.22
2023-02-12T11:30:03.492Z,1039.22
2023-02-12T11:40:03.510Z,1039.35
2023-02-12T11:45:03.124Z,1039.19
2023-02-12T11:50:03.121Z,1039.18
2023-02-12T11:55:03.370Z,1039.24
2023-02-12T12:00:03.518Z,1039.17
2023-02-12T12:10:02.953Z,1039.04
2023-02-12T12:25:06.839Z,1039.12
2023-02-12T12:30:03.763Z,1039.1
2023-02-12T12:50:02.806Z,1038.91
2023-02-12T12:55:03.600Z,1038.97
2023-02-12T13:00:03.264Z,1038.9
2023-02-12T13:05:03.268Z,1038.9
2023-02-12T13:10:03.060Z,1038.88
2023-02-12T13:15:02.916Z,1038.75
2023-02-12T13:20:02.924Z,1038.78
2023-02-12T13:25:02.923Z,1038.74
2023-02-12T13:30:03.639Z,1038.74
2023-02-12T13:35:03.451Z,1038.86
2023-02-12T13:40:03.529Z,1038.86
2023-02-12T13:45:03.229Z,1038.8
2023-02-12T13:50:03.451Z,1038.8
2023-02-12T13:55:03.887Z,1038.89
2023-02-12T14:00:02.833Z,1038.9
2023-02-12T14:05:03.634Z,1038.87
2023-02-12T14:10:03.382Z,1038.89
2023-02-12T14:15:03.052Z,1038.84
2023-02-12T14:20:02.846Z,1038.78
2023-02-12T14:25:03.675Z,1038.78
2023-02-12T14:30:03.284Z,1038.79
2023-02-12T14:35:03.020Z,1038.84
2023-02-12T14:40:02.696Z,1038.79
2023-02-12T14:45:03.552Z,1038.88
2023-02-12T14:50:03.357Z,1038.88
2023-02-12T14:55:03.454Z,1038.88
2023-02-12T15:00:02.985Z,1038.89
2023-02-12T15:05:04.039Z,1038.8
2023-02-12T15:10:03.615Z,1038.91
2023-02-12T15:15:03.701Z,1038.97
2023-02-12T15:20:03.343Z,1038.99
2023-02-12T15:25:03.040Z,1038.93
2023-02-12T15:30:02.917Z,1038.98
2023-02-12T15:35:02.721Z,1038.97
2023-02-12T15:40:02.967Z,1039.06
2023-02-12T15:45:02.694Z,1039.07
2023-02-12T15:50:03.554Z,1039.08
2023-02-12T15:55:03.884Z,1039.11
2023-02-12T16:00:03.286Z,1039.02
2023-02-12T16:05:03.101Z,1039.17
2023-02-12T16:10:02.891Z,1039.16
2023-02-12T16:15:03.599Z,1039.26
2023-02-12T16:20:03.553Z,1039.29
2023-02-12T16:25:03.309Z,1039.33
2023-02-12T16:30:03.279Z,1039.43
2023-02-12T16:35:03.231Z,1039.4
2023-02-12T16:40:03.181Z,1039.43
2023-02-12T16:45:04.035Z,1039.47
2023-02-12T16:50:03.634Z,1039.54
2023-02-12T16:55:03.848Z,1039.55
2023-02-12T17:00:03.285Z,1039.48
2023-02-12T17:05:02.924Z,1039.44
2023-02-12T17:10:02.750Z,1039.52
2023-02-12T17:15:03.641Z,1039.47
2023-02-12T17:20:03.488Z,1039.51
2023-02-12T17:25:03.302Z,1039.56
2023-02-12T17:30:03.569Z,1039.59
2023-02-12T17:35:03.241Z,1039.56
2023-02-12T17:40:03.046Z,1039.66
2023-02-12T17:45:03.257Z,1039.68
2023-02-12T17:50:02.920Z,1039.62
2023-02-12T17:55:04.071Z,1039.78
2023-02-12T18:00:03.588Z,1039.81
2023-02-12T18:05:03.068Z,1039.76
2023-02-12T18:10:02.784Z,1039.81
2023-02-12T18:15:03.672Z,1039.75
2023-02-12T18:20:03.884Z,1039.76
2023-02-12T18:25:03.329Z,1039.77
2023-02-12T18:30:03.514Z,1039.76
2023-02-12T18:35:03.154Z,1039.64
2023-02-12T18:40:03.168Z,1039.67
2023-02-12T18:45:02.778Z,1039.69
2023-02-12T18:50:03.470Z,1039.61
2023-02-12T18:55:03.384Z,1039.65
2023-02-12T19:00:03.224Z,1039.59
2023-02-12T19:05:02.805Z,1039.66
2023-02-12T19:10:03.789Z,1039.62
2023-02-12T19:15:03.222Z,1039.68
2023-02-12T19:20:03.316Z,1039.58
2023-02-12T19:25:02.869Z,1039.74
2023-02-12T19:30:02.872Z,1039.77
2023-02-12T19:35:03.522Z,1039.71
2023-02-12T19:40:03.503Z,1039.74
2023-02-12T19:45:03.292Z,1039.72
2023-02-12T19:50:03.254Z,1039.64
2023-02-12T19:55:03.380Z,1039.55
2023-02-12T20:00:03.683Z,1039.57
2023-02-12T20:05:02.876Z,1039.56
2023-02-12T20:10:03.554Z,1039.52
2023-02-12T20:15:03.478Z,1039.55
2023-02-12T20:20:03.315Z,1039.55
2023-02-12T20:25:02.926Z,1039.58
2023-02-12T20:30:02.799Z,1039.54
2023-02-12T20:35:03.520Z,1039.57
2023-02-12T20:40:03.675Z,1039.58
2023-02-12T20:45:03.442Z,1039.67
2023-02-12T20:50:03.613Z,1039.58
2023-02-12T20:55:03.013Z,1039.56
2023-02-12T21:00:03.507Z,1039.61
2023-02-12T21:05:03.465Z,1039.57
2023-02-12T21:10:03.245Z,1039.66
2023-02-12T21:15:03.667Z,1039.64
2023-02-12T21:20:03.552Z,1039.58
2023-02-12T21:25:03.368Z,1039.62
2023-02-12T21:30:03.026Z,1039.68
2023-02-12T21:35:02.793Z,1039.74
2023-02-12T21:40:03.478Z,1039.51
2023-02-12T21:45:03.186Z,1039.6
2023-02-12T21:50:03.117Z,1039.48
2023-02-12T21:55:03.019Z,1039.48
2023-02-12T22:00:03.627Z,1039.47
2023-02-12T22:05:03.479Z,1039.49
2023-02-12T22:10:03.413Z,1039.49
2023-02-12T22:15:03.181Z,1039.48
2023-02-12T22:20:02.915Z,1039.6
2023-02-12T22:25:02.752Z,1039.52
2023-02-12T22:30:02.963Z,1039.6
2023-02-12T22:35:02.957Z,1039.57
2023-02-12T22:40:03.628Z,1039.53
2023-02-12T22:45:03.421Z,1039.54
2023-02-12T22:50:03.157Z,1039.55
2023-02-12T22:55:03.160Z,1039.64
2023-02-12T23:00:03.717Z,1039.6
2023-02-12T23:05:03.331Z,1039.56
2023-02-12T23:10:03.145Z,1039.54
2023-02-12T23:15:03.670Z,1039.63
2023-02-12T23:20:03.437Z,1039.62
2023-02-12T23:25:03.228Z,1039.59
2023-02-12T23:30:02.913Z,1039.59
2023-02-12T23:35:03.556Z,1039.56
2023-02-12T23:40:03.351Z,1039.59
2023-02-12T23:45:03.076Z,1039.51
2023-02-12T23:50:02.515Z,1039.49
2023-02-12T23:55:03.617Z,1039.55
